createdAt,value
2023-04-15T00:00:08.518Z,12.37
2023-04-15T00:03:10.599Z,9.53
2023-04-15T00:06:13.557Z,10.10
2023-04-15T00:09:15.704Z,10.67
2023-04-15T00:12:17.676Z,11.17
2023-04-15T00:15:20.087Z,10.17
2023-04-15T00:18:22.142Z,11.73
2023-04-15T00:21:23.993Z,10.17
2023-04-15T00:24:25.839Z,11.03
2023-04-15T00:27:27.714Z,11.20
2023-04-15T00:30:29.546Z,10.23
2023-04-15T00:33:31.904Z,10.70
2023-04-15T00:36:35.126Z,10.20
2023-04-15T00:39:36.917Z,10.20
2023-04-15T00:42:39.782Z,9.07
2023-04-15T00:45:41.965Z,9.63
2023-04-15T00:48:44.310Z,11.07
2023-04-15T00:51:46.472Z,10.73
2023-04-15T00:54:48.508Z,10.30
2023-04-15T00:57:50.870Z,11.17
2023-04-15T01:00:54.557Z,11.30
2023-04-15T01:04:00.395Z,14.53
2023-04-15T01:07:02.657Z,10.50
2023-04-15T01:10:05.130Z,10.80
2023-04-15T01:13:07.026Z,15.23
2023-04-15T01:16:09.654Z,11.93
2023-04-15T01:19:14.442Z,12.13
2023-04-15T01:22:16.620Z,11.00
2023-04-15T01:25:20.229Z,9.33
2023-04-15T01:28:22.392Z,10.73
2023-04-15T01:31:24.340Z,11.57
2023-04-15T01:34:26.517Z,12.70
2023-04-15T01:37:28.912Z,10.03
2023-04-15T01:40:31.086Z,11.33
2023-04-15T01:43:33.050Z,10.67
2023-04-15T01:46:37.012Z,10.33
2023-04-15T01:49:38.977Z,10.83
2023-04-15T01:52:41.523Z,9.90
2023-04-15T01:55:43.382Z,11.97
2023-04-15T01:58:45.641Z,12.00
2023-04-15T02:01:47.546Z,11.33
2023-04-15T02:04:50.311Z,15.83
2023-04-15T02:07:52.612Z,12.03
2023-04-15T02:10:54.448Z,10.97
2023-04-15T02:13:56.575Z,11.23
2023-04-15T02:16:58.665Z,10.90
2023-04-15T02:20:00.711Z,11.50
2023-04-15T02:23:03.167Z,10.17
2023-04-15T02:26:05.784Z,10.90
2023-04-15T02:29:07.811Z,14.37
2023-04-15T02:32:09.923Z,11.67
2023-04-15T02:35:11.980Z,10.47
2023-04-15T02:38:14.814Z,10.93
2023-04-15T02:41:16.716Z,12.27
2023-04-15T02:44:22.093Z,11.07
2023-04-15T02:47:23.850Z,12.63
2023-04-15T02:50:25.913Z,10.80
2023-04-15T02:53:27.639Z,11.43
2023-04-15T02:56:30.328Z,13.33
2023-04-15T02:59:32.240Z,10.37
2023-04-15T03:02:35.663Z,10.70
2023-04-15T03:05:39.264Z,11.93
2023-04-15T03:08:41.635Z,11.60
2023-04-15T03:11:43.727Z,12.23
2023-04-15T03:14:45.561Z,11.23
2023-04-15T03:17:49.651Z,9.57
2023-04-15T03:20:51.606Z,12.33
2023-04-15T03:23:53.514Z,11.27
2023-04-15T03:26:56.362Z,11.50
2023-04-15T03:29:58.261Z,9.83
2023-04-15T03:33:00.147Z,12.33
2023-04-15T03:36:02.029Z,12.73
2023-04-15T03:39:04.290Z,12.57
2023-04-15T03:42:06.251Z,12.20
2023-04-15T03:45:08.395Z,12.37
2023-04-15T03:48:16.506Z,13.17
2023-04-15T03:51:19.483Z,13.50
2023-04-15T03:54:21.755Z,12.57
2023-04-15T03:57:24.020Z,12.53
2023-04-15T04:00:26.233Z,11.27
2023-04-15T04:03:28.264Z,12.43
2023-04-15T04:06:31.155Z,11.63
2023-04-15T04:09:33.264Z,13.37
2023-04-15T04:12:35.075Z,11.20
2023-04-15T04:15:36.931Z,11.63
2023-04-15T04:18:38.771Z,13.27
2023-04-15T04:21:40.798Z,10.90
2023-04-15T04:24:42.640Z,10.83
2023-04-15T04:27:45.443Z,10.90
2023-04-15T04:30:47.368Z,11.90
2023-04-15T04:33:49.609Z,13.30
2023-04-15T04:36:51.607Z,11.53
2023-04-15T04:39:53.378Z,12.27
2023-04-15T04:42:55.260Z,10.80
2023-04-15T04:45:57.089Z,13.77
2023-04-15T04:48:58.979Z,12.33
2023-04-15T04:52:00.972Z,11.67
2023-04-15T04:55:02.915Z,13.07
2023-04-15T04:58:04.915Z,14.77
2023-04-15T05:01:06.695Z,12.47
2023-04-15T05:04:08.754Z,14.53
2023-04-15T05:07:11.034Z,13.30
2023-04-15T05:10:13.074Z,12.93
2023-04-15T05:13:15.184Z,12.50
2023-04-15T05:16:17.736Z,14.03
2023-04-15T05:19:19.825Z,14.40
2023-04-15T05:22:21.676Z,14.17
2023-04-15T05:25:23.585Z,13.73
2023-04-15T05:28:28.511Z,17.03
2023-04-15T05:31:30.800Z,16.80
2023-04-15T05:34:32.797Z,15.47
2023-04-15T05:37:34.611Z,16.27
2023-04-15T05:40:37.105Z,14.77
2023-04-15T05:43:39.005Z,13.73
2023-04-15T05:46:41.048Z,16.27
2023-04-15T05:49:42.927Z,15.40
2023-04-15T05:52:45.950Z,16.03
2023-04-15T05:55:47.866Z,18.90
2023-04-15T05:58:50.144Z,15.57
2023-04-15T06:01:53.743Z,17.57
2023-04-15T06:04:55.611Z,16.50
2023-04-15T06:07:57.788Z,19.37
2023-04-15T06:11:00.621Z,18.77
2023-04-15T06:14:02.491Z,18.63
2023-04-15T06:17:04.407Z,16.10
2023-04-15T06:20:06.578Z,18.07
2023-04-15T06:23:08.347Z,16.67
2023-04-15T06:26:10.276Z,23.13
2023-04-15T06:29:12.135Z,17.73
2023-04-15T06:32:14.116Z,17.77
2023-04-15T06:35:16.107Z,18.87
2023-04-15T06:38:17.962Z,17.80
2023-04-15T06:41:19.894Z,17.17
2023-04-15T06:44:22.294Z,19.63
2023-04-15T06:47:24.315Z,19.93
2023-04-15T06:50:26.442Z,17.47
2023-04-15T06:53:28.306Z,17.07
2023-04-15T06:56:30.564Z,18.37
2023-04-15T06:59:32.845Z,18.83
2023-04-15T07:02:34.831Z,17.07
2023-04-15T07:05:37.823Z,18.83
2023-04-15T07:08:39.726Z,17.53
2023-04-15T07:11:41.821Z,16.73
2023-04-15T07:14:43.891Z,19.43
2023-04-15T07:17:45.697Z,19.77
2023-04-15T07:20:48.084Z,18.23
2023-04-15T07:23:50.007Z,17.57
2023-04-15T07:26:52.219Z,18.40
2023-04-15T07:29:54.002Z,20.57
2023-04-15T07:32:56.423Z,17.73
2023-04-15T07:35:58.384Z,18.40
2023-04-15T07:39:02.415Z,16.90
2023-04-15T07:42:04.796Z,15.80
2023-04-15T07:45:07.686Z,17.13
2023-04-15T07:48:09.500Z,17.53
2023-04-15T07:51:13.241Z,18.67
2023-04-15T07:54:18.149Z,15.90
2023-04-15T07:57:21.144Z,17.80
2023-04-15T08:00:24.075Z,15.63
2023-04-15T08:03:27.882Z,15.43
2023-04-15T08:06:29.941Z,14.30
2023-04-15T08:09:31.877Z,15.50
2023-04-15T08:12:33.920Z,14.37
2023-04-15T08:15:36.266Z,12.83
2023-04-15T08:18:38.365Z,13.10
2023-04-15T08:21:41.189Z,12.40
2023-04-15T08:24:43.446Z,12.83
2023-04-15T08:27:46.613Z,11.73
2023-04-15T08:30:48.462Z,14.00
2023-04-15T08:33:52.646Z,11.47
2023-04-15T08:36:54.654Z,11.90
2023-04-15T08:39:56.918Z,10.40
2023-04-15T08:43:00.869Z,10.50
2023-04-15T08:46:04.646Z,10.37
2023-04-15T08:49:11.249Z,9.93
2023-04-15T08:52:13.187Z,10.60
2023-04-15T08:55:16.110Z,11.83
2023-04-15T08:58:19.081Z,10.37
2023-04-15T09:01:21.725Z,14.07
2023-04-15T09:04:23.629Z,10.27
2023-04-15T09:07:25.598Z,10.73
2023-04-15T09:10:28.864Z,10.37
2023-04-15T09:13:31.198Z,12.13
2023-04-15T09:16:53.396Z,10.17
2023-04-15T09:20:13.610Z,10.43
2023-04-15T09:23:17.555Z,11.23
2023-04-15T09:26:19.454Z,11.77
2023-04-15T09:29:24.506Z,10.90
2023-04-15T09:32:26.599Z,11.10
2023-04-15T09:35:28.948Z,11.20
2023-04-15T09:38:31.470Z,9.67
2023-04-15T09:41:33.656Z,9.47
2023-04-15T09:44:35.848Z,10.50
2023-04-15T09:47:38.279Z,9.90
2023-04-15T09:50:42.868Z,9.93
2023-04-15T09:53:44.708Z,10.17
2023-04-15T09:56:46.865Z,10.17
2023-04-15T09:59:48.648Z,9.13
2023-04-15T10:02:51.167Z,7.20
2023-04-15T10:05:54.245Z,9.50
2023-04-15T10:08:57.614Z,9.60
2023-04-15T10:11:59.467Z,9.70
2023-04-15T10:15:07.167Z,9.73
2023-04-15T10:18:11.552Z,7.80
2023-04-15T10:21:16.485Z,7.93
2023-04-15T10:24:18.971Z,7.83
2023-04-15T10:27:22.161Z,8.53
2023-04-15T10:30:24.328Z,8.37
2023-04-15T10:33:27.231Z,9.00
2023-04-15T10:36:29.804Z,8.27
2023-04-15T10:39:38.199Z,8.00
2023-04-15T10:42:40.131Z,8.03
2023-04-15T10:45:46.250Z,10.00
2023-04-15T10:48:50.321Z,8.30
2023-04-15T10:51:57.166Z,7.10
2023-04-15T10:55:11.075Z,7.53
2023-04-15T10:58:15.063Z,8.40
2023-04-15T11:01:16.922Z,8.17
2023-04-15T11:04:54.066Z,8.00
2023-04-15T11:07:57.410Z,7.10
2023-04-15T11:10:59.566Z,7.70
2023-04-15T11:14:03.182Z,7.23
2023-04-15T11:17:05.653Z,6.53
2023-04-15T11:20:09.119Z,5.90
2023-04-15T11:23:15.361Z,6.77
2023-04-15T11:26:17.741Z,6.17
2023-04-15T11:29:19.613Z,5.77
2023-04-15T11:32:22.026Z,6.37
2023-04-15T11:35:23.938Z,4.67
2023-04-15T11:38:25.832Z,6.03
2023-04-15T11:41:27.871Z,4.73
2023-04-15T11:44:29.710Z,5.13
2023-04-15T11:47:31.592Z,5.23
2023-04-15T11:50:34.071Z,4.70
2023-04-15T11:53:50.552Z,7.50
2023-04-15T11:56:53.629Z,4.17
2023-04-15T11:59:55.827Z,4.37
2023-04-15T12:03:43.721Z,4.77
2023-04-15T12:06:46.728Z,5.17
2023-04-15T12:09:57.045Z,3.97
2023-04-15T12:12:58.936Z,4.37
2023-04-15T12:16:00.884Z,4.27
2023-04-15T12:19:07.048Z,4.23
2023-04-15T12:22:17.699Z,4.83
2023-04-15T12:25:19.949Z,3.67
2023-04-15T12:28:21.762Z,3.87
2023-04-15T12:31:24.190Z,3.50
2023-04-15T12:34:27.223Z,3.07
2023-04-15T12:37:29.071Z,3.47
2023-04-15T12:40:31.036Z,3.57
2023-04-15T12:43:32.807Z,3.37
2023-04-15T12:46:35.002Z,4.10
2023-04-15T12:49:37.678Z,4.47
2023-04-15T12:52:39.507Z,4.53
2023-04-15T12:55:41.758Z,4.80
2023-04-15T12:58:43.871Z,5.13
2023-04-15T13:01:47.351Z,3.50
2023-04-15T13:04:49.360Z,4.10
2023-04-15T13:07:51.294Z,4.17
2023-04-15T13:10:53.116Z,3.87
2023-04-15T13:13:56.047Z,4.37
2023-04-15T13:16:59.173Z,3.47
2023-04-15T13:20:01.782Z,4.00
2023-04-15T13:23:03.575Z,2.13
2023-04-15T13:26:05.676Z,4.37
2023-04-15T13:29:07.571Z,2.37
2023-04-15T13:32:09.744Z,5.93
2023-04-15T13:35:11.663Z,2.43
2023-04-15T13:38:13.682Z,2.27
2023-04-15T13:41:15.461Z,2.03
2023-04-15T13:44:17.683Z,3.23
2023-04-15T13:47:20.525Z,2.00
2023-04-15T13:50:22.397Z,2.23
2023-04-15T13:53:38.363Z,2.77
2023-04-15T13:56:41.867Z,2.53
2023-04-15T13:59:44.173Z,3.00
2023-04-15T14:02:46.431Z,3.10
2023-04-15T14:05:48.323Z,2.67
2023-04-15T14:08:50.441Z,3.37
2023-04-15T14:11:52.464Z,2.50
2023-04-15T14:14:54.534Z,2.50
2023-04-15T14:17:56.616Z,2.40
2023-04-15T14:20:58.409Z,2.00
2023-04-15T14:24:00.411Z,2.83
2023-04-15T14:27:02.282Z,2.40
2023-04-15T14:30:04.634Z,2.60
2023-04-15T14:33:06.704Z,2.17
2023-04-15T14:36:09.920Z,2.23
2023-04-15T14:39:12.106Z,2.87
2023-04-15T14:42:14.127Z,2.60
2023-04-15T14:45:16.401Z,3.13
2023-04-15T14:48:18.256Z,2.83
2023-04-15T14:51:20.383Z,3.17
2023-04-15T14:54:22.588Z,3.40
2023-04-15T14:57:24.515Z,2.53
2023-04-15T15:00:26.580Z,2.30
2023-04-15T15:03:29.457Z,1.67
2023-04-15T15:06:31.666Z,2.03
2023-04-15T15:09:34.945Z,2.13
2023-04-15T15:12:37.127Z,3.53
2023-04-15T15:15:39.449Z,1.40
2023-04-15T15:18:41.472Z,3.63
2023-04-15T15:21:44.112Z,2.50
2023-04-15T15:24:45.921Z,1.60
2023-04-15T15:27:48.095Z,1.40
2023-04-15T15:30:49.926Z,1.57
2023-04-15T15:33:55.983Z,1.67
2023-04-15T15:36:58.294Z,1.80
2023-04-15T15:40:00.994Z,1.27
2023-04-15T15:43:02.930Z,1.30
2023-04-15T15:46:04.817Z,2.50
2023-04-15T15:49:06.726Z,1.50
2023-04-15T15:52:09.150Z,1.67
2023-04-15T15:55:11.159Z,1.57
2023-04-15T15:58:12.998Z,1.30
2023-04-15T16:01:14.869Z,1.10
2023-04-15T16:04:16.934Z,1.07
2023-04-15T16:07:18.991Z,2.03
2023-04-15T16:10:21.008Z,1.60
2023-04-15T16:13:22.933Z,2.03
2023-04-15T16:16:24.829Z,3.40
2023-04-15T16:19:26.717Z,8.73
2023-04-15T16:22:29.190Z,32.87
2023-04-15T16:25:30.914Z,42.57
2023-04-15T16:28:32.716Z,16.23
2023-04-15T16:31:35.984Z,8.23
2023-04-15T16:34:39.294Z,3.03
2023-04-15T16:37:41.104Z,3.57
2023-04-15T16:40:43.317Z,3.17
2023-04-15T16:43:45.995Z,3.10
2023-04-15T16:46:47.754Z,2.83
2023-04-15T16:49:50.643Z,1.80
2023-04-15T16:52:53.055Z,2.20
2023-04-15T16:55:54.880Z,1.60
2023-04-15T16:58:56.689Z,2.03
2023-04-15T17:01:58.617Z,1.43
2023-04-15T17:05:00.554Z,2.27
2023-04-15T17:08:03.250Z,1.63
2023-04-15T17:11:05.031Z,1.40
2023-04-15T17:14:10.720Z,1.50
2023-04-15T17:17:12.541Z,2.00
2023-04-15T17:20:14.816Z,1.67
2023-04-15T17:23:17.156Z,1.40
2023-04-15T17:26:19.493Z,1.37
2023-04-15T17:29:21.374Z,1.30
2023-04-15T17:32:23.876Z,1.23
2023-04-15T17:35:26.336Z,1.90
2023-04-15T17:38:28.140Z,1.50
2023-04-15T17:41:29.967Z,2.20
2023-04-15T17:44:31.813Z,1.37
2023-04-15T17:47:33.939Z,1.20
2023-04-15T17:50:35.931Z,1.93
2023-04-15T17:53:37.797Z,1.70
2023-04-15T17:56:42.268Z,1.30
2023-04-15T17:59:45.147Z,2.17
2023-04-15T18:02:48.810Z,1.30
2023-04-15T18:05:51.040Z,1.07
2023-04-15T18:08:53.056Z,1.10
2023-04-15T18:11:54.814Z,1.40
2023-04-15T18:14:56.635Z,0.97
2023-04-15T18:18:00.291Z,1.57
2023-04-15T18:21:02.204Z,2.03
2023-04-15T18:24:04.419Z,1.53
2023-04-15T18:27:06.851Z,1.03
2023-04-15T18:30:11.144Z,1.47
2023-04-15T18:33:13.438Z,1.57
2023-04-15T18:36:15.245Z,1.47
2023-04-15T18:39:17.069Z,1.40
2023-04-15T18:42:18.806Z,3.80
2023-04-15T18:45:20.991Z,2.03
2023-04-15T18:48:23.167Z,3.27
2023-04-15T18:51:25.057Z,2.07
2023-04-15T18:54:27.292Z,2.60
2023-04-15T18:57:34.960Z,3.27
2023-04-15T19:00:41.732Z,2.90
2023-04-15T19:03:43.979Z,3.10
2023-04-15T19:06:48.058Z,2.00
2023-04-15T19:09:50.045Z,1.80
2023-04-15T19:12:51.807Z,2.20
2023-04-15T19:15:53.758Z,1.47
2023-04-15T19:18:55.553Z,1.47
2023-04-15T19:21:58.012Z,2.53
2023-04-15T19:24:59.785Z,1.93
2023-04-15T19:28:01.677Z,2.07
2023-04-15T19:31:03.862Z,2.43
2023-04-15T19:34:05.797Z,2.43
2023-04-15T19:37:07.842Z,3.40
2023-04-15T19:40:10.192Z,6.47
2023-04-15T19:43:12.162Z,2.53
2023-04-15T19:46:14.153Z,2.20
2023-04-15T19:49:16.902Z,2.67
2023-04-15T19:52:18.770Z,2.30
2023-04-15T19:55:20.566Z,2.67
2023-04-15T19:58:22.563Z,2.43
2023-04-15T20:01:25.929Z,2.70
2023-04-15T20:04:27.980Z,3.67
2023-04-15T20:07:30.075Z,3.17
2023-04-15T20:10:32.374Z,3.80
2023-04-15T20:13:34.583Z,9.43
2023-04-15T20:16:38.328Z,6.40
2023-04-15T20:19:40.227Z,3.53
2023-04-15T20:22:42.480Z,4.30
2023-04-15T20:25:44.269Z,3.50
2023-04-15T20:28:46.077Z,3.40
2023-04-15T20:31:48.124Z,4.53
2023-04-15T20:34:51.398Z,4.27
2023-04-15T20:37:53.398Z,3.97
2023-04-15T20:40:55.687Z,3.87
2023-04-15T20:43:57.472Z,4.23
2023-04-15T20:46:59.362Z,3.83
2023-04-15T20:50:01.474Z,4.20
2023-04-15T20:53:04.925Z,6.13
2023-04-15T20:56:06.824Z,3.57
2023-04-15T20:59:08.639Z,4.13
2023-04-15T21:02:10.724Z,4.47
2023-04-15T21:05:12.789Z,3.40
2023-04-15T21:08:15.037Z,4.63
2023-04-15T21:11:33.222Z,4.23
2023-04-15T21:14:40.803Z,4.33
2023-04-15T21:17:42.618Z,4.37
2023-04-15T21:20:44.483Z,4.03
2023-04-15T21:23:46.255Z,4.03
2023-04-15T21:26:48.248Z,4.53
2023-04-15T21:29:50.019Z,4.50
2023-04-15T21:32:51.889Z,4.77
2023-04-15T21:35:54.484Z,4.90
2023-04-15T21:38:56.423Z,4.73
2023-04-15T21:41:59.463Z,6.00
2023-04-15T21:45:01.457Z,5.97
2023-04-15T21:48:07.660Z,4.83
2023-04-15T21:51:10.494Z,5.20
2023-04-15T21:54:12.516Z,5.40
2023-04-15T21:57:14.418Z,4.63
2023-04-15T22:00:16.526Z,3.90
2023-04-15T22:03:18.564Z,5.43
2023-04-15T22:06:21.064Z,7.33
2023-04-15T22:09:23.027Z,5.93
2023-04-15T22:12:24.830Z,5.00
2023-04-15T22:15:27.025Z,4.13
2023-04-15T22:18:29.026Z,5.60
2023-04-15T22:21:31.735Z,5.07
2023-04-15T22:24:40.488Z,6.20
2023-04-15T22:27:42.553Z,5.50
2023-04-15T22:30:44.398Z,7.37
2023-04-15T22:33:46.196Z,5.80
2023-04-15T22:36:48.987Z,5.53
2023-04-15T22:39:51.886Z,6.03
2023-04-15T22:42:53.688Z,6.20
2023-04-15T22:45:55.706Z,6.50
2023-04-15T22:48:57.490Z,4.73
2023-04-15T22:51:59.254Z,5.07
2023-04-15T22:55:01.115Z,7.03
2023-04-15T22:58:02.986Z,6.40
2023-04-15T23:01:04.910Z,5.10
2023-04-15T23:04:09.490Z,5.37
2023-04-15T23:07:27.112Z,5.60
2023-04-15T23:10:29.404Z,6.33
2023-04-15T23:13:31.250Z,5.50
2023-04-15T23:16:33.146Z,6.10
2023-04-15T23:19:35.004Z,6.93
2023-04-15T23:22:37.877Z,5.40
2023-04-15T23:25:39.750Z,6.23
2023-04-15T23:28:41.595Z,8.07
2023-04-15T23:31:43.562Z,6.80
2023-04-15T23:34:45.396Z,8.20
2023-04-15T23:37:47.207Z,8.57
2023-04-15T23:40:50.631Z,8.43
2023-04-15T23:43:52.457Z,10.97
2023-04-15T23:46:54.262Z,6.50
2023-04-15T23:49:56.467Z,5.63
2023-04-15T23:52:58.879Z,7.57
2023-04-15T23:56:01.464Z,7.97
2023-04-15T23:59:03.242Z,7.57
